Klitsa — CZ3072 — position and weather

sailwx.info

Track history (hours):
 
Tides and Currents Weather Stations Pressure Air Temp Water Temp Dewpoint Dewpoint Depression Visibility Wind Speed Wind Dir Waves Ship Positions

Klitsa

Last reported at 2018-Jul-16 02:32 UTC. Time now 2018-Jul-16 04:34 UTC.
Position N 48°35' W 123°28'.

Length 46 m; draft 3 m.

Type: Passenger vessel. MMSI: 316001235.

Date/timePositionNaut miles runAvg speedWind from/ knotsBaromVisibWave heightAir tempDewpointWater temp
2018-Jul-16 02:32N 48°35' W 123°28'0 0.0
2018-Jul-16 02:06N 48°35' W 123°28'0 4.3
2018-Jul-16 02:00N 48°35' W 123°29'3 5.1
2018-Jul-16 01:30N 48°37' W 123°31'3 5.9
2018-Jul-16 01:00N 48°35' W 123°28'3 5.9
2018-Jul-16 00:30N 48°37' W 123°31'3 5.5
2018-Jul-16 00:00N 48°35' W 123°28'2 3.8
2018-Jul-15 23:31N 48°36' W 123°30'1 1.2
2018-Jul-15 23:01N 48°36' W 123°30'2 2.9
2018-Jul-15 22:29N 48°35' W 123°28'3 6.1
2018-Jul-15 22:00N 48°37' W 123°31'3 5.5
2018-Jul-15 21:30N 48°35' W 123°28'2 3.4
2018-Jul-15 21:00N 48°36' W 123°30'0 0.3
2018-Jul-15 20:30N 48°36' W 123°30'2 2.7
2018-Jul-15 19:47N 48°35' W 123°28'0 0.0
2018-Jul-15 19:08N 48°35' W 123°28'0 0.6
2018-Jul-15 19:00N 48°35' W 123°28'3 5.9
2018-Jul-15 18:30N 48°37' W 123°31'3 5.9
2018-Jul-15 18:00N 48°35' W 123°28'2 4.8
2018-Jul-15 17:30N 48°36' W 123°31'1 2.4
2018-Jul-15 17:00N 48°35' W 123°30'0 0.8
2018-Jul-15 16:30N 48°35' W 123°29'2 3.7
2018-Jul-15 16:00N 48°37' W 123°31'3 5.0
2018-Jul-15 15:28N 48°35' W 123°28'0 0.0
2018-Jul-15 03:34N 48°35' W 123°28'0 0.0
2018-Jul-15 02:04N 48°35' W 123°28'0 0.0
2018-Jul-15 02:00N 48°35' W 123°28'3 5.9
2018-Jul-15 01:30N 48°37' W 123°31'3 5.4
2018-Jul-15 01:00N 48°35' W 123°28'2 3.7
2018-Jul-15 00:30N 48°36' W 123°30'1 1.3
2018-Jul-15 00:00N 48°36' W 123°30'1 1.2
2018-Jul-14 23:30N 48°35' W 123°29'2 4.3
2018-Jul-14 23:01N 48°37' W 123°31'3 5.8
2018-Jul-14 22:31N 48°35' W 123°28'3 5.8
2018-Jul-14 22:00N 48°37' W 123°31'3 5.8
2018-Jul-14 21:30N 48°35' W 123°28'2 4.2
2018-Jul-14 21:01N 48°36' W 123°30'0 1.0
2018-Jul-14 20:31N 48°36' W 123°30'2 1.1
2018-Jul-14 19:06N 48°35' W 123°28'0 3.6
2018-Jul-14 19:00N 48°35' W 123°29'3 5.4
2018-Jul-14 18:30N 48°37' W 123°31'3 5.7
2018-Jul-14 17:59N 48°35' W 123°28'3 5.5
2018-Jul-14 17:30N 48°37' W 123°31'2 3.7
2018-Jul-14 17:00N 48°35' W 123°29'0 0.1
2018-Jul-14 16:30N 48°35' W 123°29'2 3.5
2018-Jul-14 16:00N 48°37' W 123°31'3 5.1
2018-Jul-14 15:30N 48°35' W 123°28'3 5.9
2018-Jul-14 15:00N 48°37' W 123°31'3 5.8
2018-Jul-14 14:30N 48°35' W 123°28'0 0.0
2018-Jul-14 05:06N 48°35' W 123°28'0 0.0
2018-Jul-14 05:00N 48°35' W 123°28'0 0.0
2018-Jul-14 04:30N 48°35' W 123°28'0 0.0
2018-Jul-14 04:00N 48°35' W 123°28'0 0.0
2018-Jul-14 03:00N 48°35' W 123°28'0 0.0
2018-Jul-14 02:24N 48°35' W 123°28'0 0.2
2018-Jul-14 02:00N 48°35' W 123°28'3 6.0
2018-Jul-14 01:30N 48°37' W 123°31'3 5.2
2018-Jul-14 00:56N 48°35' W 123°28'3 6.7
2018-Jul-14 00:30N 48°37' W 123°31'2 4.4
2018-Jul-14 00:00N 48°35' W 123°29'1 1.3
2018-Jul-13 23:30N 48°35' W 123°30'1 2.5
2018-Jul-13 23:00N 48°36' W 123°31'2 5.0
2018-Jul-13 22:30N 48°35' W 123°28'3 5.9
2018-Jul-13 22:00N 48°37' W 123°31'3 5.9
2018-Jul-13 21:30N 48°35' W 123°28'2 3.8
2018-Jul-13 21:01N 48°36' W 123°30'0 0.0
2018-Jul-13 20:30N 48°36' W 123°30'2 1.4
2018-Jul-13 19:10N 48°35' W 123°28'0 1.8
2018-Jul-13 19:00N 48°35' W 123°28'3 5.5
2018-Jul-13 18:30N 48°37' W 123°31'3 5.9
2018-Jul-13 18:00N 48°35' W 123°28'2 5.0
2018-Jul-13 17:30N 48°36' W 123°31'2 3.2
2018-Jul-13 17:00N 48°35' W 123°29'0 0.1
2018-Jul-13 16:30N 48°35' W 123°29'1 2.8
2018-Jul-13 16:00N 48°36' W 123°30'2 4.7
2018-Jul-13 15:30N 48°35' W 123°28'3 5.9
2018-Jul-13 15:00N 48°37' W 123°31'3 5.8
2018-Jul-13 14:30N 48°35' W 123°28'0 0.0
2018-Jul-13 12:55N 48°35' W 123°28'0 0.0
2018-Jul-13 12:16N 48°35' W 123°28'0 0.0
2018-Jul-13 02:02N 48°35' W 123°28'0 2.0
2018-Jul-13 02:00N 48°35' W 123°28'3 5.9
2018-Jul-13 01:30N 48°37' W 123°31'3 5.3
2018-Jul-13 00:57N 48°35' W 123°28'3 6.2
2018-Jul-13 00:30N 48°37' W 123°31'1 2.8
2018-Jul-13 00:00N 48°35' W 123°30'0 0.9
2018-Jul-12 23:30N 48°35' W 123°29'2 4.1
2018-Jul-12 23:00N 48°37' W 123°31'3 5.7
2018-Jul-12 22:30N 48°35' W 123°28'3 6.0
2018-Jul-12 22:00N 48°37' W 123°31'3 5.1
2018-Jul-12 21:30N 48°35' W 123°29'1 2.8
2018-Jul-12 21:00N 48°36' W 123°30'0 0.5
2018-Jul-12 20:30N 48°36' W 123°30'2 1.5
2018-Jul-12 19:05N 48°35' W 123°28'0 2.0
2018-Jul-12 19:00N 48°35' W 123°28'3 5.7
2018-Jul-12 18:31N 48°37' W 123°31'3 5.9
2018-Jul-12 18:01N 48°35' W 123°28'3 5.5
2018-Jul-12 17:31N 48°37' W 123°31'2 4.3
2018-Jul-12 17:00N 48°35' W 123°29'1 1.5
2018-Jul-12 16:31N 48°36' W 123°30'1 2.0
2018-Jul-12 16:01N 48°36' W 123°30'2 4.7
2018-Jul-12 15:30N 48°35' W 123°28'3 5.9
2018-Jul-12 15:01N 48°37' W 123°31'3 5.6
2018-Jul-12 14:29N 48°35' W 123°28'0 0.0
2018-Jul-12 10:42N 48°35' W 123°28'0 0.0
2018-Jul-12 10:24N 48°35' W 123°28'0 0.0
2018-Jul-12 10:00N 48°35' W 123°28'0 0.0
2018-Jul-12 02:24N 48°35' W 123°28'1 3.5
2018-Jul-12 02:01N 48°35' W 123°30'1 1.8
2018-Jul-12 01:31N 48°36' W 123°30'2 4.3
2018-Jul-12 01:01N 48°35' W 123°28'3 5.7
2018-Jul-12 00:30N 48°37' W 123°31'3 4.4
2018-Jul-11 23:50N 48°35' W 123°28'2 7.2
2018-Jul-11 23:31N 48°36' W 123°31'1 1.3
2018-Jul-11 23:00N 48°36' W 123°30'2 3.1
2018-Jul-11 22:31N 48°35' W 123°28'3 5.6
2018-Jul-11 22:00N 48°37' W 123°31'3 5.9
2018-Jul-11 21:31N 48°35' W 123°28'2 4.0
2018-Jul-11 21:00N 48°36' W 123°30'0 0.4
2018-Jul-11 20:31N 48°36' W 123°30'2 1.5
2018-Jul-11 19:19N 48°35' W 123°28'2 6.4
2018-Jul-11 19:01N 48°36' W 123°30'0 0.4
2018-Jul-11 18:30N 48°36' W 123°30'2 3.3
2018-Jul-11 18:00N 48°35' W 123°28'3 5.6
2018-Jul-11 17:30N 48°37' W 123°31'3 5.9
2018-Jul-11 17:00N 48°35' W 123°28'2 3.8
2018-Jul-11 16:30N 48°36' W 123°30'0 0.0
2018-Jul-11 16:00N 48°36' W 123°30'2 3.5
2018-Jul-11 15:30N 48°35' W 123°28'3 5.7
2018-Jul-11 15:00N 48°37' W 123°31'3 5.4
2018-Jul-11 14:28N 48°35' W 123°28'0 0.0
2018-Jul-11 11:12N 48°35' W 123°28'0 0.0
2018-Jul-11 11:00N 48°35' W 123°28'0 0.0
2018-Jul-11 07:27N 48°35' W 123°28'0 0.0
2018-Jul-11 03:54N 48°35' W 123°28'0 0.0
2018-Jul-11 03:18N 48°35' W 123°28'0 0.0
2018-Jul-11 02:03N 48°35' W 123°28'0 5.0
2018-Jul-11 02:00N 48°35' W 123°28'3 5.5
2018-Jul-11 01:31N 48°37' W 123°31'3 5.8
2018-Jul-11 01:00N 48°35' W 123°28'3 5.9
2018-Jul-11 00:31N 48°37' W 123°31'2 4.8
2018-Jul-11 00:01N 48°35' W 123°29'1 1.9
2018-Jul-10 23:31N 48°36' W 123°30'1 1.2
2018-Jul-10 23:01N 48°36' W 123°30'2 4.0
2018-Jul-10 22:30N 48°35' W 123°28'3 5.9
2018-Jul-10 22:01N 48°37' W 123°31'3 5.9
2018-Jul-10 21:30N 48°35' W 123°28'2 3.9
2018-Jul-10 21:01N 48°36' W 123°30'0 0.3
2018-Jul-10 20:30N 48°36' W 123°30'2 3.5
2018-Jul-10 20:00N 48°35' W 123°28'0 0.0
2018-Jul-10 19:28N 48°35' W 123°28'0 0.9
2018-Jul-10 19:00N 48°35' W 123°29'3 5.2
2018-Jul-10 18:30N 48°37' W 123°31'3 5.9
2018-Jul-10 18:00N 48°35' W 123°28'3 5.5
2018-Jul-10 17:31N 48°37' W 123°31'2 3.6
2018-Jul-10 17:01N 48°35' W 123°29'0 0.5
2018-Jul-10 16:30N 48°35' W 123°29'1 2.3
2018-Jul-10 16:01N 48°36' W 123°30'2 4.7
2018-Jul-10 15:30N 48°35' W 123°28'3 5.9
2018-Jul-10 15:01N 48°37' W 123°31'3 5.8
2018-Jul-10 14:30N 48°35' W 123°28'0 0.0
2018-Jul-10 13:49N 48°35' W 123°28'0 0.0
2018-Jul-10 13:19N 48°35' W 123°28'0 0.0
2018-Jul-10 12:19N 48°35' W 123°28'0 0.0
2018-Jul-10 11:49N 48°35' W 123°28'0 0.0
2018-Jul-10 11:19N 48°35' W 123°28'0 0.0
2018-Jul-10 10:49N 48°35' W 123°28'0 0.0
2018-Jul-10 10:19N 48°35' W 123°28'0 0.0
2018-Jul-10 09:49N 48°35' W 123°28'0 0.0
2018-Jul-10 09:25N 48°35' W 123°28'0 0.0
2018-Jul-10 08:43N 48°35' W 123°28'0 0.0
2018-Jul-10 06:19N 48°35' W 123°28'0 0.0
2018-Jul-10 02:49N 48°35' W 123°28'0 0.0
2018-Jul-10 02:05N 48°35' W 123°28'0 4.6
2018-Jul-10 02:00N 48°35' W 123°29'3 5.0
2018-Jul-10 01:29N 48°37' W 123°31'3 5.9
2018-Jul-10 01:00N 48°35' W 123°28'3 6.0
2018-Jul-10 00:30N 48°37' W 123°31'2 4.9
2018-Jul-10 00:00N 48°35' W 123°29'1 1.9
2018-Jul-09 23:30N 48°36' W 123°30'1 1.8
2018-Jul-09 23:00N 48°36' W 123°30'2 4.7
2018-Jul-09 22:30N 48°35' W 123°28'3 5.9
2018-Jul-09 22:01N 48°37' W 123°31'3 5.8
2018-Jul-09 21:30N 48°35' W 123°28'2 4.4
2018-Jul-09 21:00N 48°36' W 123°30'0 0.9
2018-Jul-09 20:30N 48°36' W 123°30'2 2.8
2018-Jul-09 19:54N 48°35' W 123°28'0 0.0
2018-Jul-09 19:17N 48°35' W 123°28'1 2.7
2018-Jul-09 19:01N 48°35' W 123°29'2 4.5
2018-Jul-09 18:30N 48°37' W 123°31'3 5.9
2018-Jul-09 18:00N 48°35' W 123°28'3 5.9
2018-Jul-09 17:30N 48°37' W 123°31'3 5.7
2018-Jul-09 17:00N 48°35' W 123°28'1 2.8
2018-Jul-09 16:30N 48°36' W 123°30'1 1.5
2018-Jul-09 16:00N 48°36' W 123°30'2 4.3
2018-Jul-09 15:30N 48°35' W 123°28'3 6.0
2018-Jul-09 15:00N 48°37' W 123°31'3 5.9
2018-Jul-09 14:30N 48°35' W 123°28'0 0.0
2018-Jul-09 11:47N 48°35' W 123°28'0 0.0
2018-Jul-09 11:29N 48°35' W 123°28'0 0.0
2018-Jul-09 10:53N 48°35' W 123°28'0 0.0
2018-Jul-09 08:59N 48°35' W 123°28'0 0.0
2018-Jul-09 08:23N 48°35' W 123°28'0 0.0
2018-Jul-09 02:17N 48°35' W 123°28'0 0.0
2018-Jul-09 01:59N 48°35' W 123°28'3 6.3
2018-Jul-09 01:30N 48°37' W 123°31'3 5.9
2018-Jul-09 01:00N 48°35' W 123°28'3 5.1
2018-Jul-09 00:31N 48°36' W 123°31'1 2.7
2018-Jul-09 00:01N 48°35' W 123°29'0 0.9
2018-Jul-08 23:30N 48°35' W 123°29'2 4.2
2018-Jul-08 23:01N 48°37' W 123°31'3 5.5
2018-Jul-08 22:30N 48°35' W 123°28'3 6.0
2018-Jul-08 22:00N 48°37' W 123°31'3 5.9
2018-Jul-08 21:30N 48°35' W 123°28'2 4.5
2018-Jul-08 21:00N 48°36' W 123°30'0 0.9
2018-Jul-08 20:30N 48°36' W 123°30'2 1.3
2018-Jul-08 19:11N 48°35' W 123°28'0 1.4
2018-Jul-08 19:00N 48°35' W 123°28'3 5.5
2018-Jul-08 18:30N 48°37' W 123°31'3 5.9
2018-Jul-08 18:00N 48°35' W 123°28'2 4.9
2018-Jul-08 17:30N 48°36' W 123°31'1 2.6
2018-Jul-08 17:00N 48°35' W 123°29'0 0.2
2018-Jul-08 16:30N 48°35' W 123°29'1 2.7
2018-Jul-08 16:00N 48°36' W 123°31'2 2.1
2018-Jul-08 14:50N 48°35' W 123°28'0 0.0
2018-Jul-08 07:53N 48°35' W 123°28'0 0.0
2018-Jul-08 07:29N 48°35' W 123°28'0 0.0
2018-Jul-08 06:53N 48°35' W 123°28'0 0.0
2018-Jul-08 06:23N 48°35' W 123°28'0 0.0
2018-Jul-08 05:59N 48°35' W 123°28'0 0.0
2018-Jul-08 02:29N 48°35' W 123°28'0 0.0
2018-Jul-08 01:56N 48°35' W 123°28'3 6.8
2018-Jul-08 01:30N 48°37' W 123°31'3 5.6
2018-Jul-08 01:00N 48°35' W 123°28'2 4.3
2018-Jul-08 00:30N 48°36' W 123°30'1 2.3
2018-Jul-08 00:01N 48°35' W 123°29'1 1.1
2018-Jul-07 23:30N 48°35' W 123°29'2 4.7
2018-Jul-07 23:00N 48°37' W 123°31'3 5.4
2018-Jul-07 22:28N 48°35' W 123°28'3 6.3
2018-Jul-07 22:00N 48°37' W 123°31'3 5.7
2018-Jul-07 21:30N 48°35' W 123°28'2 3.9
2018-Jul-07 21:00N 48°36' W 123°30'0 0.7
2018-Jul-07 20:31N 48°36' W 123°30'2 1.2
2018-Jul-07 19:10N 48°35' W 123°28'0 0.0
2018-Jul-07 19:00N 48°35' W 123°28'3 5.9
2018-Jul-07 18:30N 48°37' W 123°31'3 5.9
2018-Jul-07 18:00N 48°35' W 123°28'2 4.5
2018-Jul-07 17:31N 48°36' W 123°30'1 2.0
2018-Jul-07 17:01N 48°35' W 123°30'0 0.7
2018-Jul-07 16:31N 48°35' W 123°29'2 3.0
2018-Jul-07 16:00N 48°36' W 123°31'2 4.9
2018-Jul-07 15:30N 48°35' W 123°28'3 6.0
2018-Jul-07 15:01N 48°37' W 123°31'3 5.8
2018-Jul-07 14:30N 48°35' W 123°28'0 0.0
2018-Jul-07 13:09N 48°35' W 123°28'0 0.0
2018-Jul-07 13:00N 48°35' W 123°28'0 0.0
2018-Jul-07 11:57N 48°35' W 123°28'0 0.0
2018-Jul-07 11:27N 48°35' W 123°28'0 0.0
2018-Jul-07 10:51N 48°35' W 123°28'0 0.0
2018-Jul-07 08:18N 48°35' W 123°28'0 0.0
2018-Jul-07 04:33N 48°35' W 123°28'0 0.0
2018-Jul-07 02:51N 48°35' W 123°28'0 0.0
2018-Jul-07 02:27N 48°35' W 123°28'0 1.1
2018-Jul-07 02:00N 48°35' W 123°29'3 5.1
2018-Jul-07 01:30N 48°37' W 123°31'3 5.6
2018-Jul-07 00:59N 48°35' W 123°28'3 6.1
2018-Jul-07 00:30N 48°37' W 123°31'2 4.8
2018-Jul-07 00:00N 48°35' W 123°29'1 1.6
2018-Jul-06 23:31N 48°36' W 123°30'1 1.6
2018-Jul-06 23:00N 48°36' W 123°30'2 4.3
2018-Jul-06 22:30N 48°35' W 123°28'3 5.7
2018-Jul-06 22:00N 48°37' W 123°31'3 6.1
2018-Jul-06 21:30N 48°35' W 123°28'2 4.3
2018-Jul-06 21:01N 48°36' W 123°30'0 1.0
2018-Jul-06 20:31N 48°36' W 123°30'2 3.3
2018-Jul-06 20:00N 48°35' W 123°28'0 0.0
2018-Jul-06 19:30N 48°35' W 123°28'0 0.5
2018-Jul-06 19:00N 48°35' W 123°28'3 5.5
2018-Jul-06 18:30N 48°37' W 123°31'3 5.9
2018-Jul-06 18:00N 48°35' W 123°28'3 5.9
2018-Jul-06 17:31N 48°37' W 123°31'3 5.0
2018-Jul-06 17:00N 48°35' W 123°29'1 1.5
2018-Jul-06 16:31N 48°35' W 123°30'1 2.6
2018-Jul-06 16:00N 48°36' W 123°31'2 4.9
2018-Jul-06 15:30N 48°35' W 123°28'3 5.9
2018-Jul-06 15:00N 48°37' W 123°31'3 1.1
2018-Jul-06 12:13N 48°35' W 123°28'0 0.0
2018-Jul-06 11:58N 48°35' W 123°28'  
Track history (hours):
 
Tides and Currents Weather Stations Pressure Air Temp Water Temp Dewpoint Dewpoint Depression Visibility Wind Speed Wind Dir Waves Ship Positions

Klitsa

Last reported at 2018-Jul-16 02:32 UTC. Time now 2018-Jul-16 04:34 UTC.
Position N 48°35' W 123°28'.

Length 46 m; draft 3 m.

Type: Passenger vessel. MMSI: 316001235.

Date/timePositionNaut miles runAvg speedWind from/ knotsBaromVisibWave heightAir tempDewpointWater temp
2018-Jul-16 02:32N 48°35' W 123°28'0 0.0
2018-Jul-16 02:06N 48°35' W 123°28'0 4.3
2018-Jul-16 02:00N 48°35' W 123°29'3 5.1
2018-Jul-16 01:30N 48°37' W 123°31'3 5.9
2018-Jul-16 01:00N 48°35' W 123°28'3 5.9
2018-Jul-16 00:30N 48°37' W 123°31'3 5.5
2018-Jul-16 00:00N 48°35' W 123°28'2 3.8
2018-Jul-15 23:31N 48°36' W 123°30'1 1.2
2018-Jul-15 23:01N 48°36' W 123°30'2 2.9
2018-Jul-15 22:29N 48°35' W 123°28'3 6.1
2018-Jul-15 22:00N 48°37' W 123°31'3 5.5
2018-Jul-15 21:30N 48°35' W 123°28'2 3.4
2018-Jul-15 21:00N 48°36' W 123°30'0 0.3
2018-Jul-15 20:30N 48°36' W 123°30'2 2.7
2018-Jul-15 19:47N 48°35' W 123°28'0 0.0
2018-Jul-15 19:08N 48°35' W 123°28'0 0.6
2018-Jul-15 19:00N 48°35' W 123°28'3 5.9
2018-Jul-15 18:30N 48°37' W 123°31'3 5.9
2018-Jul-15 18:00N 48°35' W 123°28'2 4.8
2018-Jul-15 17:30N 48°36' W 123°31'1 2.4
2018-Jul-15 17:00N 48°35' W 123°30'0 0.8
2018-Jul-15 16:30N 48°35' W 123°29'2 3.7
2018-Jul-15 16:00N 48°37' W 123°31'3 5.0
2018-Jul-15 15:28N 48°35' W 123°28'0 0.0
2018-Jul-15 03:34N 48°35' W 123°28'0 0.0
2018-Jul-15 02:04N 48°35' W 123°28'0 0.0
2018-Jul-15 02:00N 48°35' W 123°28'3 5.9
2018-Jul-15 01:30N 48°37' W 123°31'3 5.4
2018-Jul-15 01:00N 48°35' W 123°28'2 3.7
2018-Jul-15 00:30N 48°36' W 123°30'1 1.3
2018-Jul-15 00:00N 48°36' W 123°30'1 1.2
2018-Jul-14 23:30N 48°35' W 123°29'2 4.3
2018-Jul-14 23:01N 48°37' W 123°31'3 5.8
2018-Jul-14 22:31N 48°35' W 123°28'3 5.8
2018-Jul-14 22:00N 48°37' W 123°31'3 5.8
2018-Jul-14 21:30N 48°35' W 123°28'2 4.2
2018-Jul-14 21:01N 48°36' W 123°30'0 1.0
2018-Jul-14 20:31N 48°36' W 123°30'2 1.1
2018-Jul-14 19:06N 48°35' W 123°28'0 3.6
2018-Jul-14 19:00N 48°35' W 123°29'3 5.4
2018-Jul-14 18:30N 48°37' W 123°31'3 5.7
2018-Jul-14 17:59N 48°35' W 123°28'3 5.5
2018-Jul-14 17:30N 48°37' W 123°31'2 3.7
2018-Jul-14 17:00N 48°35' W 123°29'0 0.1
2018-Jul-14 16:30N 48°35' W 123°29'2 3.5
2018-Jul-14 16:00N 48°37' W 123°31'3 5.1
2018-Jul-14 15:30N 48°35' W 123°28'3 5.9
2018-Jul-14 15:00N 48°37' W 123°31'3 5.8
2018-Jul-14 14:30N 48°35' W 123°28'0 0.0
2018-Jul-14 05:06N 48°35' W 123°28'0 0.0
2018-Jul-14 05:00N 48°35' W 123°28'0 0.0
2018-Jul-14 04:30N 48°35' W 123°28'0 0.0
2018-Jul-14 04:00N 48°35' W 123°28'0 0.0
2018-Jul-14 03:00N 48°35' W 123°28'0 0.0
2018-Jul-14 02:24N 48°35' W 123°28'0 0.2
2018-Jul-14 02:00N 48°35' W 123°28'3 6.0
2018-Jul-14 01:30N 48°37' W 123°31'3 5.2
2018-Jul-14 00:56N 48°35' W 123°28'3 6.7
2018-Jul-14 00:30N 48°37' W 123°31'2 4.4
2018-Jul-14 00:00N 48°35' W 123°29'1 1.3
2018-Jul-13 23:30N 48°35' W 123°30'1 2.5
2018-Jul-13 23:00N 48°36' W 123°31'2 5.0
2018-Jul-13 22:30N 48°35' W 123°28'3 5.9
2018-Jul-13 22:00N 48°37' W 123°31'3 5.9
2018-Jul-13 21:30N 48°35' W 123°28'2 3.8
2018-Jul-13 21:01N 48°36' W 123°30'0 0.0
2018-Jul-13 20:30N 48°36' W 123°30'2 1.4
2018-Jul-13 19:10N 48°35' W 123°28'0 1.8
2018-Jul-13 19:00N 48°35' W 123°28'3 5.5
2018-Jul-13 18:30N 48°37' W 123°31'3 5.9
2018-Jul-13 18:00N 48°35' W 123°28'2 5.0
2018-Jul-13 17:30N 48°36' W 123°31'2 3.2
2018-Jul-13 17:00N 48°35' W 123°29'0 0.1
2018-Jul-13 16:30N 48°35' W 123°29'1 2.8
2018-Jul-13 16:00N 48°36' W 123°30'2 4.7
2018-Jul-13 15:30N 48°35' W 123°28'3 5.9
2018-Jul-13 15:00N 48°37' W 123°31'3 5.8
2018-Jul-13 14:30N 48°35' W 123°28'0 0.0
2018-Jul-13 12:55N 48°35' W 123°28'0 0.0
2018-Jul-13 12:16N 48°35' W 123°28'0 0.0
2018-Jul-13 02:02N 48°35' W 123°28'0 2.0
2018-Jul-13 02:00N 48°35' W 123°28'3 5.9
2018-Jul-13 01:30N 48°37' W 123°31'3 5.3
2018-Jul-13 00:57N 48°35' W 123°28'3 6.2
2018-Jul-13 00:30N 48°37' W 123°31'1 2.8
2018-Jul-13 00:00N 48°35' W 123°30'0 0.9
2018-Jul-12 23:30N 48°35' W 123°29'2 4.1
2018-Jul-12 23:00N 48°37' W 123°31'3 5.7
2018-Jul-12 22:30N 48°35' W 123°28'3 6.0
2018-Jul-12 22:00N 48°37' W 123°31'3 5.1
2018-Jul-12 21:30N 48°35' W 123°29'1 2.8
2018-Jul-12 21:00N 48°36' W 123°30'0 0.5
2018-Jul-12 20:30N 48°36' W 123°30'2 1.5
2018-Jul-12 19:05N 48°35' W 123°28'0 2.0
2018-Jul-12 19:00N 48°35' W 123°28'3 5.7
2018-Jul-12 18:31N 48°37' W 123°31'3 5.9
2018-Jul-12 18:01N 48°35' W 123°28'3 5.5
2018-Jul-12 17:31N 48°37' W 123°31'2 4.3
2018-Jul-12 17:00N 48°35' W 123°29'1 1.5
2018-Jul-12 16:31N 48°36' W 123°30'1 2.0
2018-Jul-12 16:01N 48°36' W 123°30'2 4.7
2018-Jul-12 15:30N 48°35' W 123°28'3 5.9
2018-Jul-12 15:01N 48°37' W 123°31'3 5.6
2018-Jul-12 14:29N 48°35' W 123°28'0 0.0
2018-Jul-12 10:42N 48°35' W 123°28'0 0.0
2018-Jul-12 10:24N 48°35' W 123°28'0 0.0
2018-Jul-12 10:00N 48°35' W 123°28'0 0.0
2018-Jul-12 02:24N 48°35' W 123°28'1 3.5
2018-Jul-12 02:01N 48°35' W 123°30'1 1.8
2018-Jul-12 01:31N 48°36' W 123°30'2 4.3
2018-Jul-12 01:01N 48°35' W 123°28'3 5.7
2018-Jul-12 00:30N 48°37' W 123°31'3 4.4
2018-Jul-11 23:50N 48°35' W 123°28'2 7.2
2018-Jul-11 23:31N 48°36' W 123°31'1 1.3
2018-Jul-11 23:00N 48°36' W 123°30'2 3.1
2018-Jul-11 22:31N 48°35' W 123°28'3 5.6
2018-Jul-11 22:00N 48°37' W 123°31'3 5.9
2018-Jul-11 21:31N 48°35' W 123°28'2 4.0
2018-Jul-11 21:00N 48°36' W 123°30'0 0.4
2018-Jul-11 20:31N 48°36' W 123°30'2 1.5
2018-Jul-11 19:19N 48°35' W 123°28'2 6.4
2018-Jul-11 19:01N 48°36' W 123°30'0 0.4
2018-Jul-11 18:30N 48°36' W 123°30'2 3.3
2018-Jul-11 18:00N 48°35' W 123°28'3 5.6
2018-Jul-11 17:30N 48°37' W 123°31'3 5.9
2018-Jul-11 17:00N 48°35' W 123°28'2 3.8
2018-Jul-11 16:30N 48°36' W 123°30'0 0.0
2018-Jul-11 16:00N 48°36' W 123°30'2 3.5
2018-Jul-11 15:30N 48°35' W 123°28'3 5.7
2018-Jul-11 15:00N 48°37' W 123°31'3 5.4
2018-Jul-11 14:28N 48°35' W 123°28'0 0.0
2018-Jul-11 11:12N 48°35' W 123°28'0 0.0
2018-Jul-11 11:00N 48°35' W 123°28'0 0.0
2018-Jul-11 07:27N 48°35' W 123°28'0 0.0
2018-Jul-11 03:54N 48°35' W 123°28'0 0.0
2018-Jul-11 03:18N 48°35' W 123°28'0 0.0
2018-Jul-11 02:03N 48°35' W 123°28'0 5.0
2018-Jul-11 02:00N 48°35' W 123°28'3 5.5
2018-Jul-11 01:31N 48°37' W 123°31'3 5.8
2018-Jul-11 01:00N 48°35' W 123°28'3 5.9
2018-Jul-11 00:31N 48°37' W 123°31'2 4.8
2018-Jul-11 00:01N 48°35' W 123°29'1 1.9
2018-Jul-10 23:31N 48°36' W 123°30'1 1.2
2018-Jul-10 23:01N 48°36' W 123°30'2 4.0
2018-Jul-10 22:30N 48°35' W 123°28'3 5.9
2018-Jul-10 22:01N 48°37' W 123°31'3 5.9
2018-Jul-10 21:30N 48°35' W 123°28'2 3.9
2018-Jul-10 21:01N 48°36' W 123°30'0 0.3
2018-Jul-10 20:30N 48°36' W 123°30'2 3.5
2018-Jul-10 20:00N 48°35' W 123°28'0 0.0
2018-Jul-10 19:28N 48°35' W 123°28'0 0.9
2018-Jul-10 19:00N 48°35' W 123°29'3 5.2
2018-Jul-10 18:30N 48°37' W 123°31'3 5.9
2018-Jul-10 18:00N 48°35' W 123°28'3 5.5
2018-Jul-10 17:31N 48°37' W 123°31'2 3.6
2018-Jul-10 17:01N 48°35' W 123°29'0 0.5
2018-Jul-10 16:30N 48°35' W 123°29'1 2.3
2018-Jul-10 16:01N 48°36' W 123°30'2 4.7
2018-Jul-10 15:30N 48°35' W 123°28'3 5.9
2018-Jul-10 15:01N 48°37' W 123°31'3 5.8
2018-Jul-10 14:30N 48°35' W 123°28'0 0.0
2018-Jul-10 13:49N 48°35' W 123°28'0 0.0
2018-Jul-10 13:19N 48°35' W 123°28'0 0.0
2018-Jul-10 12:19N 48°35' W 123°28'0 0.0
2018-Jul-10 11:49N 48°35' W 123°28'0 0.0
2018-Jul-10 11:19N 48°35' W 123°28'0 0.0
2018-Jul-10 10:49N 48°35' W 123°28'0 0.0
2018-Jul-10 10:19N 48°35' W 123°28'0 0.0
2018-Jul-10 09:49N 48°35' W 123°28'0 0.0
2018-Jul-10 09:25N 48°35' W 123°28'0 0.0
2018-Jul-10 08:43N 48°35' W 123°28'0 0.0
2018-Jul-10 06:19N 48°35' W 123°28'0 0.0
2018-Jul-10 02:49N 48°35' W 123°28'0 0.0
2018-Jul-10 02:05N 48°35' W 123°28'0 4.6
2018-Jul-10 02:00N 48°35' W 123°29'3 5.0
2018-Jul-10 01:29N 48°37' W 123°31'3 5.9
2018-Jul-10 01:00N 48°35' W 123°28'3 6.0
2018-Jul-10 00:30N 48°37' W 123°31'2 4.9
2018-Jul-10 00:00N 48°35' W 123°29'1 1.9
2018-Jul-09 23:30N 48°36' W 123°30'1 1.8
2018-Jul-09 23:00N 48°36' W 123°30'2 4.7
2018-Jul-09 22:30N 48°35' W 123°28'3 5.9
2018-Jul-09 22:01N 48°37' W 123°31'3 5.8
2018-Jul-09 21:30N 48°35' W 123°28'2 4.4
2018-Jul-09 21:00N 48°36' W 123°30'0 0.9
2018-Jul-09 20:30N 48°36' W 123°30'2 2.8
2018-Jul-09 19:54N 48°35' W 123°28'0 0.0
2018-Jul-09 19:17N 48°35' W 123°28'1 2.7
2018-Jul-09 19:01N 48°35' W 123°29'2 4.5
2018-Jul-09 18:30N 48°37' W 123°31'3 5.9
2018-Jul-09 18:00N 48°35' W 123°28'3 5.9
2018-Jul-09 17:30N 48°37' W 123°31'3 5.7
2018-Jul-09 17:00N 48°35' W 123°28'1 2.8
2018-Jul-09 16:30N 48°36' W 123°30'1 1.5
2018-Jul-09 16:00N 48°36' W 123°30'2 4.3
2018-Jul-09 15:30N 48°35' W 123°28'3 6.0
2018-Jul-09 15:00N 48°37' W 123°31'3 5.9
2018-Jul-09 14:30N 48°35' W 123°28'0 0.0
2018-Jul-09 11:47N 48°35' W 123°28'0 0.0
2018-Jul-09 11:29N 48°35' W 123°28'0 0.0
2018-Jul-09 10:53N 48°35' W 123°28'0 0.0
2018-Jul-09 08:59N 48°35' W 123°28'0 0.0
2018-Jul-09 08:23N 48°35' W 123°28'0 0.0
2018-Jul-09 02:17N 48°35' W 123°28'0 0.0
2018-Jul-09 01:59N 48°35' W 123°28'3 6.3
2018-Jul-09 01:30N 48°37' W 123°31'3 5.9
2018-Jul-09 01:00N 48°35' W 123°28'3 5.1
2018-Jul-09 00:31N 48°36' W 123°31'1 2.7
2018-Jul-09 00:01N 48°35' W 123°29'0 0.9
2018-Jul-08 23:30N 48°35' W 123°29'2 4.2
2018-Jul-08 23:01N 48°37' W 123°31'3 5.5
2018-Jul-08 22:30N 48°35' W 123°28'3 6.0
2018-Jul-08 22:00N 48°37' W 123°31'3 5.9
2018-Jul-08 21:30N 48°35' W 123°28'2 4.5
2018-Jul-08 21:00N 48°36' W 123°30'0 0.9
2018-Jul-08 20:30N 48°36' W 123°30'2 1.3
2018-Jul-08 19:11N 48°35' W 123°28'0 1.4
2018-Jul-08 19:00N 48°35' W 123°28'3 5.5
2018-Jul-08 18:30N 48°37' W 123°31'3 5.9
2018-Jul-08 18:00N 48°35' W 123°28'2 4.9
2018-Jul-08 17:30N 48°36' W 123°31'1 2.6
2018-Jul-08 17:00N 48°35' W 123°29'0 0.2
2018-Jul-08 16:30N 48°35' W 123°29'1 2.7
2018-Jul-08 16:00N 48°36' W 123°31'2 2.1
2018-Jul-08 14:50N 48°35' W 123°28'0 0.0
2018-Jul-08 07:53N 48°35' W 123°28'0 0.0
2018-Jul-08 07:29N 48°35' W 123°28'0 0.0
2018-Jul-08 06:53N 48°35' W 123°28'0 0.0
2018-Jul-08 06:23N 48°35' W 123°28'0 0.0
2018-Jul-08 05:59N 48°35' W 123°28'0 0.0
2018-Jul-08 02:29N 48°35' W 123°28'0 0.0
2018-Jul-08 01:56N 48°35' W 123°28'3 6.8
2018-Jul-08 01:30N 48°37' W 123°31'3 5.6
2018-Jul-08 01:00N 48°35' W 123°28'2 4.3
2018-Jul-08 00:30N 48°36' W 123°30'1 2.3
2018-Jul-08 00:01N 48°35' W 123°29'1 1.1
2018-Jul-07 23:30N 48°35' W 123°29'2 4.7
2018-Jul-07 23:00N 48°37' W 123°31'3 5.4
2018-Jul-07 22:28N 48°35' W 123°28'3 6.3
2018-Jul-07 22:00N 48°37' W 123°31'3 5.7
2018-Jul-07 21:30N 48°35' W 123°28'2 3.9
2018-Jul-07 21:00N 48°36' W 123°30'0 0.7
2018-Jul-07 20:31N 48°36' W 123°30'2 1.2
2018-Jul-07 19:10N 48°35' W 123°28'0 0.0
2018-Jul-07 19:00N 48°35' W 123°28'3 5.9
2018-Jul-07 18:30N 48°37' W 123°31'3 5.9
2018-Jul-07 18:00N 48°35' W 123°28'2 4.5
2018-Jul-07 17:31N 48°36' W 123°30'1 2.0
2018-Jul-07 17:01N 48°35' W 123°30'0 0.7
2018-Jul-07 16:31N 48°35' W 123°29'2 3.0
2018-Jul-07 16:00N 48°36' W 123°31'2 4.9
2018-Jul-07 15:30N 48°35' W 123°28'3 6.0
2018-Jul-07 15:01N 48°37' W 123°31'3 5.8
2018-Jul-07 14:30N 48°35' W 123°28'0 0.0
2018-Jul-07 13:09N 48°35' W 123°28'0 0.0
2018-Jul-07 13:00N 48°35' W 123°28'0 0.0
2018-Jul-07 11:57N 48°35' W 123°28'0 0.0
2018-Jul-07 11:27N 48°35' W 123°28'0 0.0
2018-Jul-07 10:51N 48°35' W 123°28'0 0.0
2018-Jul-07 08:18N 48°35' W 123°28'0 0.0
2018-Jul-07 04:33N 48°35' W 123°28'0 0.0
2018-Jul-07 02:51N 48°35' W 123°28'0 0.0
2018-Jul-07 02:27N 48°35' W 123°28'0 1.1
2018-Jul-07 02:00N 48°35' W 123°29'3 5.1
2018-Jul-07 01:30N 48°37' W 123°31'3 5.6
2018-Jul-07 00:59N 48°35' W 123°28'3 6.1
2018-Jul-07 00:30N 48°37' W 123°31'2 4.8
2018-Jul-07 00:00N 48°35' W 123°29'1 1.6
2018-Jul-06 23:31N 48°36' W 123°30'1 1.6
2018-Jul-06 23:00N 48°36' W 123°30'2 4.3
2018-Jul-06 22:30N 48°35' W 123°28'3 5.7
2018-Jul-06 22:00N 48°37' W 123°31'3 6.1
2018-Jul-06 21:30N 48°35' W 123°28'2 4.3
2018-Jul-06 21:01N 48°36' W 123°30'0 1.0
2018-Jul-06 20:31N 48°36' W 123°30'2 3.3
2018-Jul-06 20:00N 48°35' W 123°28'0 0.0
2018-Jul-06 19:30N 48°35' W 123°28'0 0.5
2018-Jul-06 19:00N 48°35' W 123°28'3 5.5
2018-Jul-06 18:30N 48°37' W 123°31'3 5.9
2018-Jul-06 18:00N 48°35' W 123°28'3 5.9
2018-Jul-06 17:31N 48°37' W 123°31'3 5.0
2018-Jul-06 17:00N 48°35' W 123°29'1 1.5
2018-Jul-06 16:31N 48°35' W 123°30'1 2.6
2018-Jul-06 16:00N 48°36' W 123°31'2 4.9
2018-Jul-06 15:30N 48°35' W 123°28'3 5.9
2018-Jul-06 15:00N 48°37' W 123°31'3 1.1
2018-Jul-06 12:13N 48°35' W 123°28'0 0.0
2018-Jul-06 11:58N 48°35' W 123°28'  

Dump ship's entire track history